Eiwa Maru — JG5742 — position and weather

sailwx.info

Track history (hours):
 
Tides and Currents Weather Stations Pressure Air Temp Water Temp Dewpoint Dewpoint Depression Visibility Wind Speed Wind Dir Waves Ship Positions

Eiwa Maru

Last reported at 2017-Jun-23 13:30 UTC. Time now 2017-Jun-23 13:50 UTC.
Position N 34°14' E 134°59'.

Length 80 m; draft 5.4 m.

Type: Ship (hazmat cat A). MMSI: 431101045.

Date/timePositionNaut miles runAvg speedWind from/ knotsBaromVisibWave heightAir tempDewpointWater temp
2017-Jun-23 13:30N 34°14' E 134°59'611.5
2017-Jun-23 13:00N 34°20' E 134°59'610.9
2017-Jun-23 12:30N 34°24' E 135°04'611.9
2017-Jun-23 12:00N 34°27' E 135°10'611.6
2017-Jun-23 11:30N 34°31' E 135°15'712.3
2017-Jun-23 10:56N 34°35' E 135°21'4 8.3
2017-Jun-23 10:30N 34°35' E 135°26'0 0.6
2017-Jun-23 10:00N 34°34' E 135°26'0 0.0
2017-Jun-23 09:29N 34°34' E 135°26'0 0.0
2017-Jun-23 09:00N 34°34' E 135°26'0 0.0
2017-Jun-23 08:30N 34°34' E 135°26'0 0.0
2017-Jun-23 08:00N 34°34' E 135°26'0 0.0
2017-Jun-23 07:30N 34°34' E 135°26'0 0.0
2017-Jun-23 07:00N 34°34' E 135°26'0 0.0
2017-Jun-23 06:30N 34°34' E 135°26'0 0.0
2017-Jun-23 06:00N 34°34' E 135°26'0 0.0
2017-Jun-23 05:30N 34°34' E 135°26'0 0.2
2017-Jun-23 05:00N 34°34' E 135°26'2 4.5
2017-Jun-23 04:30N 34°36' E 135°24'4 8.3
2017-Jun-23 04:00N 34°36' E 135°19'0 0.4
2017-Jun-23 03:30N 34°36' E 135°19'0 0.0
2017-Jun-23 03:00N 34°36' E 135°19'0 0.0
2017-Jun-23 02:24N 34°36' E 135°19'0 0.0
2017-Jun-23 02:00N 34°36' E 135°19'0 0.0
2017-Jun-23 01:30N 34°36' E 135°19'0 0.0
2017-Jun-23 01:00N 34°36' E 135°19'0 0.0
2017-Jun-23 00:30N 34°36' E 135°19'0 0.1
2017-Jun-23 00:00N 34°36' E 135°19'0 0.0
2017-Jun-22 23:30N 34°36' E 135°19'0 0.0
2017-Jun-22 20:24N 34°36' E 135°19'0 0.0
2017-Jun-22 19:48N 34°36' E 135°19'0 0.2
2017-Jun-22 19:30N 34°36' E 135°19'0 0.1
2017-Jun-22 18:42N 34°36' E 135°19'0 0.0
2017-Jun-22 18:30N 34°36' E 135°19'0 0.0
2017-Jun-22 17:54N 34°36' E 135°19'0 0.0
2017-Jun-22 17:06N 34°36' E 135°19'0 0.1
2017-Jun-22 17:00N 34°36' E 135°19'0 0.0
2017-Jun-22 16:24N 34°36' E 135°19'0 0.0
2017-Jun-22 16:00N 34°36' E 135°19'0 0.0
2017-Jun-22 15:18N 34°36' E 135°19'0 0.0
2017-Jun-22 14:48N 34°36' E 135°19'0 0.1
2017-Jun-22 13:54N 34°36' E 135°19'0 0.1
2017-Jun-22 13:24N 34°36' E 135°19'0 0.0
2017-Jun-22 13:00N 34°36' E 135°19'0 0.0
2017-Jun-22 12:30N 34°36' E 135°19'0 0.0
2017-Jun-22 12:00N 34°36' E 135°19'0 0.2
2017-Jun-22 11:30N 34°36' E 135°19'1 2.6
2017-Jun-22 11:00N 34°35' E 135°17'713.4
2017-Jun-22 10:29N 34°30' E 135°12'714.0
2017-Jun-22 10:00N 34°25' E 135°06'1214.3
2017-Jun-22 09:09N 34°14' E 134°59'214.0
2017-Jun-22 09:00N 34°12' E 134°60'8 0.6
2017-Jun-21 18:50N 34°04' E 135°00'412.6
2017-Jun-21 18:30N 34°08' E 134°60'713.3
2017-Jun-21 18:00N 34°15' E 134°59'913.2
2017-Jun-21 17:17N 34°24' E 135°00'413.5
2017-Jun-21 17:00N 34°28' E 135°01'713.3
2017-Jun-21 16:30N 34°34' E 135°03'711.8
2017-Jun-21 15:56N 34°35' E 134°55'  
2017-Jun-19 06:08N 35°13' E 139°46'213.2
2017-Jun-19 06:01N 35°15' E 139°46'612.4
2017-Jun-19 05:30N 35°20' E 139°42'611.8
2017-Jun-19 05:00N 35°26' E 139°44'612.8
2017-Jun-19 04:31N 35°29' E 139°51'612.8
2017-Jun-19 04:00N 35°31' E 139°58'3 0.4
2017-Jun-18 21:57N 35°33' E 140°01'0 0.0
2017-Jun-18 21:24N 35°33' E 140°01'0 0.1
2017-Jun-18 21:00N 35°33' E 140°01'0 0.1
2017-Jun-18 20:24N 35°33' E 140°01'0 0.0
2017-Jun-18 19:58N 35°33' E 140°01'0 0.1
2017-Jun-18 19:30N 35°33' E 140°01'0 0.1
2017-Jun-18 19:00N 35°33' E 140°01'0 0.0
2017-Jun-18 18:27N 35°33' E 140°01'0 0.0
2017-Jun-18 17:54N 35°33' E 140°01'0 0.0
2017-Jun-18 16:48N 35°33' E 140°01'0 0.0
2017-Jun-18 16:27N 35°33' E 140°01'0 0.0
2017-Jun-18 13:54N 35°33' E 140°01'0 0.0
2017-Jun-18 13:30N 35°33' E 140°01'0 0.0
2017-Jun-18 12:57N 35°33' E 140°01'0 0.0
2017-Jun-18 11:48N 35°33' E 140°01'0 0.1
2017-Jun-18 11:03N 35°33' E 140°01'0 0.0
2017-Jun-18 10:45N 35°33' E 140°01'0 0.0
2017-Jun-18 10:21N 35°33' E 140°01'0 0.1
2017-Jun-18 09:54N 35°33' E 140°01'0 0.0
2017-Jun-18 09:30N 35°33' E 140°01'0 0.0
2017-Jun-18 08:42N 35°33' E 140°01'0 0.0
2017-Jun-18 08:24N 35°33' E 140°01'0 0.0
2017-Jun-18 06:48N 35°33' E 140°01'0 0.0
2017-Jun-18 06:06N 35°33' E 140°01'0 0.0
2017-Jun-18 06:00N 35°33' E 140°01'0 0.0
2017-Jun-18 05:27N 35°33' E 140°01'0 0.0
2017-Jun-18 04:57N 35°33' E 140°01'0 0.0
2017-Jun-18 03:21N 35°33' E 140°01'0 0.0
2017-Jun-18 00:00N 35°33' E 140°01'1 0.0
2017-Jun-16 23:07N 35°33' E 140°01'1 0.4
2017-Jun-16 21:53N 35°33' E 140°00'0 0.0
2017-Jun-16 21:14N 35°33' E 140°00'1 0.8
2017-Jun-16 20:07N 35°33' E 139°59'112.8
2017-Jun-16 20:00N 35°32' E 139°58'612.5
2017-Jun-16 19:30N 35°28' E 139°51'612.4
2017-Jun-16 19:00N 35°24' E 139°46'612.2
2017-Jun-16 18:30N 35°18' E 139°45'612.2
2017-Jun-16 17:59N 35°12' E 139°47'812.7
2017-Jun-16 17:22N 35°04' E 139°44'24311.6
2017-Jun-15 20:25N 33°58' E 135°00'613.5
2017-Jun-15 19:56N 34°04' E 134°59'614.1
2017-Jun-15 19:31N 34°10' E 134°58'814.2
2017-Jun-15 18:58N 34°18' E 134°59'612.7
2017-Jun-15 18:30N 34°24' E 135°00'713.6
2017-Jun-15 17:59N 34°31' E 135°02'611.9
2017-Jun-15 17:30N 34°36' E 135°02'  
Track history (hours):
 
Tides and Currents Weather Stations Pressure Air Temp Water Temp Dewpoint Dewpoint Depression Visibility Wind Speed Wind Dir Waves Ship Positions

Eiwa Maru

Last reported at 2017-Jun-23 13:30 UTC. Time now 2017-Jun-23 13:50 UTC.
Position N 34°14' E 134°59'.

Length 80 m; draft 5.4 m.

Type: Ship (hazmat cat A). MMSI: 431101045.

Date/timePositionNaut miles runAvg speedWind from/ knotsBaromVisibWave heightAir tempDewpointWater temp
2017-Jun-23 13:30N 34°14' E 134°59'611.5
2017-Jun-23 13:00N 34°20' E 134°59'610.9
2017-Jun-23 12:30N 34°24' E 135°04'611.9
2017-Jun-23 12:00N 34°27' E 135°10'611.6
2017-Jun-23 11:30N 34°31' E 135°15'712.3
2017-Jun-23 10:56N 34°35' E 135°21'4 8.3
2017-Jun-23 10:30N 34°35' E 135°26'0 0.6
2017-Jun-23 10:00N 34°34' E 135°26'0 0.0
2017-Jun-23 09:29N 34°34' E 135°26'0 0.0
2017-Jun-23 09:00N 34°34' E 135°26'0 0.0
2017-Jun-23 08:30N 34°34' E 135°26'0 0.0
2017-Jun-23 08:00N 34°34' E 135°26'0 0.0
2017-Jun-23 07:30N 34°34' E 135°26'0 0.0
2017-Jun-23 07:00N 34°34' E 135°26'0 0.0
2017-Jun-23 06:30N 34°34' E 135°26'0 0.0
2017-Jun-23 06:00N 34°34' E 135°26'0 0.0
2017-Jun-23 05:30N 34°34' E 135°26'0 0.2
2017-Jun-23 05:00N 34°34' E 135°26'2 4.5
2017-Jun-23 04:30N 34°36' E 135°24'4 8.3
2017-Jun-23 04:00N 34°36' E 135°19'0 0.4
2017-Jun-23 03:30N 34°36' E 135°19'0 0.0
2017-Jun-23 03:00N 34°36' E 135°19'0 0.0
2017-Jun-23 02:24N 34°36' E 135°19'0 0.0
2017-Jun-23 02:00N 34°36' E 135°19'0 0.0
2017-Jun-23 01:30N 34°36' E 135°19'0 0.0
2017-Jun-23 01:00N 34°36' E 135°19'0 0.0
2017-Jun-23 00:30N 34°36' E 135°19'0 0.1
2017-Jun-23 00:00N 34°36' E 135°19'0 0.0
2017-Jun-22 23:30N 34°36' E 135°19'0 0.0
2017-Jun-22 20:24N 34°36' E 135°19'0 0.0
2017-Jun-22 19:48N 34°36' E 135°19'0 0.2
2017-Jun-22 19:30N 34°36' E 135°19'0 0.1
2017-Jun-22 18:42N 34°36' E 135°19'0 0.0
2017-Jun-22 18:30N 34°36' E 135°19'0 0.0
2017-Jun-22 17:54N 34°36' E 135°19'0 0.0
2017-Jun-22 17:06N 34°36' E 135°19'0 0.1
2017-Jun-22 17:00N 34°36' E 135°19'0 0.0
2017-Jun-22 16:24N 34°36' E 135°19'0 0.0
2017-Jun-22 16:00N 34°36' E 135°19'0 0.0
2017-Jun-22 15:18N 34°36' E 135°19'0 0.0
2017-Jun-22 14:48N 34°36' E 135°19'0 0.1
2017-Jun-22 13:54N 34°36' E 135°19'0 0.1
2017-Jun-22 13:24N 34°36' E 135°19'0 0.0
2017-Jun-22 13:00N 34°36' E 135°19'0 0.0
2017-Jun-22 12:30N 34°36' E 135°19'0 0.0
2017-Jun-22 12:00N 34°36' E 135°19'0 0.2
2017-Jun-22 11:30N 34°36' E 135°19'1 2.6
2017-Jun-22 11:00N 34°35' E 135°17'713.4
2017-Jun-22 10:29N 34°30' E 135°12'714.0
2017-Jun-22 10:00N 34°25' E 135°06'1214.3
2017-Jun-22 09:09N 34°14' E 134°59'214.0
2017-Jun-22 09:00N 34°12' E 134°60'8 0.6
2017-Jun-21 18:50N 34°04' E 135°00'412.6
2017-Jun-21 18:30N 34°08' E 134°60'713.3
2017-Jun-21 18:00N 34°15' E 134°59'913.2
2017-Jun-21 17:17N 34°24' E 135°00'413.5
2017-Jun-21 17:00N 34°28' E 135°01'713.3
2017-Jun-21 16:30N 34°34' E 135°03'711.8
2017-Jun-21 15:56N 34°35' E 134°55'  
2017-Jun-19 06:08N 35°13' E 139°46'213.2
2017-Jun-19 06:01N 35°15' E 139°46'612.4
2017-Jun-19 05:30N 35°20' E 139°42'611.8
2017-Jun-19 05:00N 35°26' E 139°44'612.8
2017-Jun-19 04:31N 35°29' E 139°51'612.8
2017-Jun-19 04:00N 35°31' E 139°58'3 0.4
2017-Jun-18 21:57N 35°33' E 140°01'0 0.0
2017-Jun-18 21:24N 35°33' E 140°01'0 0.1
2017-Jun-18 21:00N 35°33' E 140°01'0 0.1
2017-Jun-18 20:24N 35°33' E 140°01'0 0.0
2017-Jun-18 19:58N 35°33' E 140°01'0 0.1
2017-Jun-18 19:30N 35°33' E 140°01'0 0.1
2017-Jun-18 19:00N 35°33' E 140°01'0 0.0
2017-Jun-18 18:27N 35°33' E 140°01'0 0.0
2017-Jun-18 17:54N 35°33' E 140°01'0 0.0
2017-Jun-18 16:48N 35°33' E 140°01'0 0.0
2017-Jun-18 16:27N 35°33' E 140°01'0 0.0
2017-Jun-18 13:54N 35°33' E 140°01'0 0.0
2017-Jun-18 13:30N 35°33' E 140°01'0 0.0
2017-Jun-18 12:57N 35°33' E 140°01'0 0.0
2017-Jun-18 11:48N 35°33' E 140°01'0 0.1
2017-Jun-18 11:03N 35°33' E 140°01'0 0.0
2017-Jun-18 10:45N 35°33' E 140°01'0 0.0
2017-Jun-18 10:21N 35°33' E 140°01'0 0.1
2017-Jun-18 09:54N 35°33' E 140°01'0 0.0
2017-Jun-18 09:30N 35°33' E 140°01'0 0.0
2017-Jun-18 08:42N 35°33' E 140°01'0 0.0
2017-Jun-18 08:24N 35°33' E 140°01'0 0.0
2017-Jun-18 06:48N 35°33' E 140°01'0 0.0
2017-Jun-18 06:06N 35°33' E 140°01'0 0.0
2017-Jun-18 06:00N 35°33' E 140°01'0 0.0
2017-Jun-18 05:27N 35°33' E 140°01'0 0.0
2017-Jun-18 04:57N 35°33' E 140°01'0 0.0
2017-Jun-18 03:21N 35°33' E 140°01'0 0.0
2017-Jun-18 00:00N 35°33' E 140°01'1 0.0
2017-Jun-16 23:07N 35°33' E 140°01'1 0.4
2017-Jun-16 21:53N 35°33' E 140°00'0 0.0
2017-Jun-16 21:14N 35°33' E 140°00'1 0.8
2017-Jun-16 20:07N 35°33' E 139°59'112.8
2017-Jun-16 20:00N 35°32' E 139°58'612.5
2017-Jun-16 19:30N 35°28' E 139°51'612.4
2017-Jun-16 19:00N 35°24' E 139°46'612.2
2017-Jun-16 18:30N 35°18' E 139°45'612.2
2017-Jun-16 17:59N 35°12' E 139°47'812.7
2017-Jun-16 17:22N 35°04' E 139°44'24311.6
2017-Jun-15 20:25N 33°58' E 135°00'613.5
2017-Jun-15 19:56N 34°04' E 134°59'614.1
2017-Jun-15 19:31N 34°10' E 134°58'814.2
2017-Jun-15 18:58N 34°18' E 134°59'612.7
2017-Jun-15 18:30N 34°24' E 135°00'713.6
2017-Jun-15 17:59N 34°31' E 135°02'611.9
2017-Jun-15 17:30N 34°36' E 135°02'  

Dump ship's entire track history